Overview Statistics Trail Chart Weather Telemetry Raw packets
 

This is the latest recevied weather packets stored in our database for station/object KA6AKH-WX. If no packets are shown the sender has not sent any weather packets the latest 10 day(s).

<< 2 3 4 5 6 7 8 >>
Time Temp. Humidity Pressure Rain* Wind** Luminosity Snow
1788369789 32.22° C 60% 1018.5 hPa 0 mm - - -
1788369188 32.22° C 58% 1018.5 hPa 0 mm - - -
1788368587 32.78° C 58% 1018.2 hPa 0 mm - - -
1788362496 30° C 65% 1018.2 hPa 0 mm - - -
1788361896 30° C 67% 1018.2 hPa 0 mm - - -
1788361296 29.44° C 65% 1018.1 hPa 0 mm - - -
1788360696 29.44° C 68% 1018.1 hPa 0 mm - - -
1788360096 29.44° C 68% 1018.1 hPa 0 mm - - -
1788359496 28.89° C 67% 1018.1 hPa 0 mm - - -
1788358269 28.33° C 70% 1018.1 hPa 0 mm - - -
1788357638 28.33° C 70% 1018.1 hPa 0 mm - - -
1788357036 28.33° C 71% 1017.9 hPa 0 mm - - -
1788356436 27.78° C 72% 1018 hPa 0 mm - - -
1788355806 27.78° C 73% 1018.1 hPa 0 mm - - -
1788355206 27.22° C 76% 1018 hPa 0 mm - - -
1788354606 27.22° C 77% 1017.8 hPa 0 mm - - -
1788354007 26.67° C 78% 1017.9 hPa 0 mm - - -
1788353405 26.67° C 79% 1018 hPa 0 mm - - -
1788352806 26.11° C 80% 1017.9 hPa 0 mm - - -
1788352206 26.11° C 82% 1017.8 hPa 0 mm - - -
1788351605 26.11° C 82% 1017.8 hPa 0 mm - - -
1788351008 25.56° C 83% 1017.8 hPa 0 mm - - -
1788350375 25.56° C 83% 1017.6 hPa 0 mm - - -
1788349777 25.56° C 82% 1017.5 hPa 0 mm - - -
1788349175 25.56° C 82% 1017.4 hPa 0 mm - - -

* Rain latest hour (hover to see other rain measurements)
** Current wind speed in m/s (hover to see current wind gust speed)